Hauptseite
METAR-TAF:

METAR-TAF

Flughäfen :

Monte Cimone, Italien

Breite: 44-12N, Länge: 010-42E, Höhe: 2165 m

Beobachtung

Neuester Wetterbericht von vor 59 Minuten, um 20:55 UTC
Wind 51 kt aus Nordost
Temperatur -14°C
Luftfeuchtigkeit 85%
Luftdruck 995 hPa
Sichtweite weniger als 50 m
Gefrierender Nebel

METAR: LIVC 252055Z 04051KT 0000 FZFG VV/// M14/M16 Q0995 RMK MON INVIS VAL INVIS VIS MIN 0000

Zeit: 22:54 (21:54 UTC)


TAF: fehlend

Wetterbeobachtungen und Prognosen von mehr als 4000 Flughäfen (METAR und TAF Bericht).

Die verfügbaren Stationen werden durch gelbe und rote Markierungen auf der Karte dargestellt.

Führen Sie die Maus auf sie, um den Namen der Station zu sehen.

Darauf klicken, um die Beobachtung von Wetterbeobachtungen und Prognosen zu sehen.

Um die Karte zu ändern : klicken Sie auf den grünen Tasten mit einem schwarzen Kreuz Zum Vergrößern, auf den grünen Button mit einem Gedankenstrich zu verkleinern, oder auf die grünen Pfeile für benachbarte Karten.


METAR-TAF: